Time,TemperatureF,DewpointF,PressureIn,WindDirection,WindDirectionDegrees,WindSpeedMPH,WindSpeedGustMPH,Humidity,HourlyPrecipIn,Conditions,Clouds,dailyrainin,SoftwareType,DateUTC
2013-10-05 00:14:00,63.0,61.0,29.93,SW,232,0.0,-999.0,94,-99.99,,,-99.99,,2013-10-05 04:14:00,
2013-10-05 00:24:00,63.0,61.0,29.93,SW,232,0.0,-999.0,94,-99.99,,,-99.99,,2013-10-05 04:24:00,
2013-10-05 00:44:00,63.0,61.0,29.93,SW,232,0.0,-999.0,94,-99.99,,,-99.99,,2013-10-05 04:44:00,
2013-10-05 00:54:00,63.0,61.0,29.93,SW,232,0.0,-999.0,94,-99.99,,,-99.99,,2013-10-05 04:54:00,
2013-10-05 01:13:00,63.0,61.0,29.93,SW,232,0.0,-999.0,94,-99.99,,,-99.99,,2013-10-05 05:13:00,
2013-10-05 01:22:00,62.0,60.0,29.92,SW,232,0.0,-999.0,94,-99.99,,,-99.99,,2013-10-05 05:22:00,
2013-10-05 01:43:00,62.0,60.0,29.92,SW,232,0.0,-999.0,94,-99.99,,,-99.99,,2013-10-05 05:43:00,
2013-10-05 01:52:00,62.0,60.0,29.92,SW,232,0.0,-999.0,94,-99.99,,,-99.99,,2013-10-05 05:52:00,
2013-10-05 02:12:00,62.0,60.0,29.92,SW,232,0.0,-999.0,94,-99.99,,,-99.99,,2013-10-05 06:12:00,
2013-10-05 02:22:00,61.0,59.0,29.92,SW,232,0.0,-999.0,94,-99.99,,,-99.99,,2013-10-05 06:22:00,
2013-10-05 02:43:00,62.0,60.0,29.93,SW,232,0.0,-999.0,94,-99.99,,,-99.99,,2013-10-05 06:43:00,
2013-10-05 02:52:00,61.0,59.0,29.93,SW,232,0.0,-999.0,94,-99.99,,,-99.99,,2013-10-05 06:52:00,
2013-10-05 03:12:00,61.0,59.0,29.93,SW,232,0.0,-999.0,94,-99.99,,,-99.99,,2013-10-05 07:12:00,
2013-10-05 03:22:00,61.0,59.0,29.93,SW,232,0.0,-999.0,94,-99.99,,,-99.99,,2013-10-05 07:22:00,
2013-10-05 03:42:00,60.0,58.0,29.93,SW,232,0.0,-999.0,94,-99.99,,,-99.99,,2013-10-05 07:42:00,
2013-10-05 03:52:00,60.0,58.0,29.93,SW,232,0.0,-999.0,94,-99.99,,,-99.99,,2013-10-05 07:52:00,
2013-10-05 04:12:00,60.0,58.0,29.93,SW,232,0.0,-999.0,94,-99.99,,,-99.99,,2013-10-05 08:12:00,
2013-10-05 04:23:00,60.0,58.0,29.93,SW,232,0.0,-999.0,94,-99.99,,,-99.99,,2013-10-05 08:23:00,
2013-10-05 04:42:00,60.0,58.0,29.92,SW,232,0.0,-999.0,94,-99.99,,,-99.99,,2013-10-05 08:42:00,
2013-10-05 04:52:00,60.0,58.0,29.92,SW,232,0.0,-999.0,94,-99.99,,,-99.99,,2013-10-05 08:52:00,
2013-10-05 05:12:00,60.0,58.0,29.93,SW,232,0.0,-999.0,94,-99.99,,,-99.99,,2013-10-05 09:12:00,
2013-10-05 06:23:00,60.0,-99.9,29.94,SW,232,0.0,-999.0,-999,-99.99,,,-99.99,,2013-10-05 10:23:00,
2013-10-05 06:43:00,60.0,59.0,29.94,SW,232,0.0,-999.0,95,-99.99,,,-99.99,,2013-10-05 10:43:00,
2013-10-05 07:52:00,60.0,-99.9,29.94,SW,232,0.0,-999.0,-999,-99.99,,,-99.99,,2013-10-05 11:52:00,
2013-10-05 09:12:00,61.0,60.0,29.96,SW,232,0.0,-999.0,95,-99.99,,,-99.99,,2013-10-05 13:12:00,
2013-10-05 09:32:00,-999.0,-99.9,29.95,SW,232,0.0,-999.0,-999,-99.99,,,-99.99,,2013-10-05 13:32:00,
2013-10-05 09:42:00,-999.0,-99.9,29.95,SW,232,0.0,-999.0,-999,-99.99,,,-99.99,,2013-10-05 13:42:00,
2013-10-05 10:22:00,65.0,-99.9,29.94,SW,232,0.0,-999.0,-999,-99.99,,,-99.99,,2013-10-05 14:22:00,
2013-10-05 10:42:00,67.0,-99.9,29.94,SW,232,0.0,-999.0,-999,-99.99,,,-99.99,,2013-10-05 14:42:00,
2013-10-05 10:52:00,68.0,67.0,29.94,SW,232,0.0,-999.0,97,-99.99,,,-99.99,,2013-10-05 14:52:00,
2013-10-05 11:12:00,68.0,67.0,29.93,SW,224,0.0,-999.0,96,-99.99,,,-99.99,,2013-10-05 15:12:00,
2013-10-05 11:22:00,69.0,68.0,29.92,SE,144,0.0,-999.0,96,-99.99,,,-99.99,,2013-10-05 15:22:00,
2013-10-05 11:44:00,70.0,68.0,29.91,SE,144,0.0,-999.0,95,-99.99,,,-99.99,,2013-10-05 15:44:00,
2013-10-05 11:54:00,72.0,67.0,29.91,SSE,165,0.0,-999.0,84,-99.99,,,-99.99,,2013-10-05 15:54:00,
2013-10-05 12:13:00,73.0,65.0,29.91,SE,141,1.0,-999.0,76,-99.99,,,-99.99,,2013-10-05 16:13:00,
2013-10-05 12:24:00,73.0,65.0,29.91,SSE,148,0.0,-999.0,76,-99.99,,,-99.99,,2013-10-05 16:24:00,
2013-10-05 12:43:00,74.0,66.0,29.91,West,260,0.0,-999.0,77,-99.99,,,-99.99,,2013-10-05 16:43:00,
2013-10-05 12:53:00,76.0,66.0,29.91,North,349,1.0,-999.0,72,-99.99,,,-99.99,,2013-10-05 16:53:00,
2013-10-05 13:12:00,77.0,67.0,29.90,SSW,212,2.0,-999.0,72,-99.99,,,-99.99,,2013-10-05 17:12:00,
2013-10-05 13:22:00,77.0,66.0,29.90,SSW,206,0.0,-999.0,70,-99.99,,,-99.99,,2013-10-05 17:22:00,
2013-10-05 13:42:00,77.0,66.0,29.89,SW,219,2.0,-999.0,68,-99.99,,,-99.99,,2013-10-05 17:42:00,
2013-10-05 13:53:00,79.0,66.0,29.89,SW,236,2.0,-999.0,64,-99.99,,,-99.99,,2013-10-05 17:53:00,
2013-10-05 14:12:00,79.0,66.0,29.89,SSW,209,2.0,-999.0,64,-99.99,,,-99.99,,2013-10-05 18:12:00,
2013-10-05 14:22:00,80.0,64.0,29.88,SSW,209,3.0,-999.0,59,-99.99,,,-99.99,,2013-10-05 18:22:00,
2013-10-05 14:42:00,79.0,66.0,29.88,SSW,192,3.0,-999.0,64,-99.99,,,-99.99,,2013-10-05 18:42:00,
2013-10-05 14:52:00,78.0,65.0,29.88,SSE,157,3.0,-999.0,65,-99.99,,,-99.99,,2013-10-05 18:52:00,
2013-10-05 15:11:00,76.0,64.0,29.88,SSW,195,1.0,-999.0,67,-99.99,,,-99.99,,2013-10-05 19:11:00,
2013-10-05 15:22:00,76.0,65.0,29.87,SSE,152,2.0,-999.0,68,-99.99,,,-99.99,,2013-10-05 19:22:00,
2013-10-05 15:42:00,76.0,65.0,29.86,SSW,196,1.0,-999.0,69,-99.99,,,-99.99,,2013-10-05 19:42:00,
2013-10-05 15:52:00,76.0,66.0,29.86,SSW,196,3.0,-999.0,71,-99.99,,,-99.99,,2013-10-05 19:52:00,
2013-10-05 16:11:00,75.0,66.0,29.87,WSW,241,1.0,-999.0,73,-99.99,,,-99.99,,2013-10-05 20:11:00,
2013-10-05 16:22:00,74.0,66.0,29.87,SW,222,1.0,-999.0,75,-99.99,,,-99.99,,2013-10-05 20:22:00,
2013-10-05 16:42:00,74.0,66.0,29.87,SSW,206,0.0,-999.0,77,-99.99,,,-99.99,,2013-10-05 20:42:00,
2013-10-05 16:52:00,74.0,67.0,29.88,SW,215,0.0,-999.0,78,-99.99,,,-99.99,,2013-10-05 20:52:00,
2013-10-05 17:12:00,73.0,67.0,29.86,SW,215,0.0,-999.0,81,-99.99,,,-99.99,,2013-10-05 21:12:00,
2013-10-05 17:22:00,72.0,67.0,29.86,SW,215,0.0,-999.0,84,-99.99,,,-99.99,,2013-10-05 21:22:00,
2013-10-05 17:44:00,72.0,68.0,29.86,SW,215,0.0,-999.0,87,-99.99,,,-99.99,,2013-10-05 21:44:00,
2013-10-05 17:54:00,71.0,67.0,29.85,SSW,206,0.0,-999.0,88,-99.99,,,-99.99,,2013-10-05 21:54:00,
2013-10-05 18:13:00,70.0,66.0,29.87,SSW,203,0.0,-999.0,88,-99.99,,,-99.99,,2013-10-05 22:13:00,
2013-10-05 18:24:00,70.0,66.0,29.86,South,191,1.0,-999.0,88,-99.99,,,-99.99,,2013-10-05 22:24:00,
2013-10-05 18:42:00,70.0,66.0,29.85,South,188,0.0,-999.0,88,-99.99,,,-99.99,,2013-10-05 22:42:00,
2013-10-05 18:53:00,70.0,67.0,29.85,South,188,0.0,-999.0,89,-99.99,,,-99.99,,2013-10-05 22:53:00,
2013-10-05 19:13:00,69.0,66.0,29.84,SSW,200,0.0,-999.0,89,-99.99,,,-99.99,,2013-10-05 23:13:00,
2013-10-05 19:22:00,69.0,66.0,29.83,ESE,119,0.0,-999.0,90,-99.99,,,-99.99,,2013-10-05 23:22:00,
2013-10-05 19:43:00,69.0,66.0,29.83,South,179,0.0,-999.0,90,-99.99,,,-99.99,,2013-10-05 23:43:00,
2013-10-05 19:53:00,69.0,66.0,29.84,South,179,0.0,-999.0,91,-99.99,,,-99.99,,2013-10-05 23:53:00,
2013-10-05 20:12:00,69.0,66.0,29.84,South,179,0.0,-999.0,91,-99.99,,,-99.99,,2013-10-06 00:12:00,
2013-10-05 20:23:00,68.0,65.0,29.85,South,179,0.0,-999.0,91,-99.99,,,-99.99,,2013-10-06 00:23:00,
2013-10-05 20:43:00,68.0,66.0,29.84,South,169,0.0,-999.0,92,-99.99,,,-99.99,,2013-10-06 00:43:00,
2013-10-05 20:52:00,68.0,66.0,29.85,South,174,0.0,-999.0,92,-99.99,,,-99.99,,2013-10-06 00:52:00,
2013-10-05 21:11:00,68.0,66.0,29.85,South,182,0.0,-999.0,92,-99.99,,,-99.99,,2013-10-06 01:11:00,
2013-10-05 21:22:00,68.0,66.0,29.85,South,182,0.0,-999.0,92,-99.99,,,-99.99,,2013-10-06 01:22:00,
2013-10-05 21:42:00,68.0,66.0,29.85,South,184,0.0,-999.0,92,-99.99,,,-99.99,,2013-10-06 01:42:00,
2013-10-05 21:52:00,69.0,66.0,29.85,SSE,161,0.0,-999.0,91,-99.99,,,-99.99,,2013-10-06 01:52:00,
2013-10-05 22:12:00,69.0,66.0,29.85,SSW,196,1.0,-999.0,91,-99.99,,,-99.99,,2013-10-06 02:12:00,
2013-10-05 22:22:00,69.0,66.0,29.85,SSE,167,0.0,-999.0,90,-99.99,,,-99.99,,2013-10-06 02:22:00,
2013-10-05 22:42:00,69.0,66.0,29.85,East,88,0.0,-999.0,90,-99.99,,,-99.99,,2013-10-06 02:42:00,
2013-10-05 22:53:00,69.0,66.0,29.86,West,261,0.0,-999.0,90,-99.99,,,-99.99,,2013-10-06 02:53:00,
2013-10-05 23:12:00,68.0,65.0,29.85,West,261,0.0,-999.0,91,-99.99,,,-99.99,,2013-10-06 03:12:00,
2013-10-05 23:22:00,68.0,66.0,29.85,West,261,0.0,-999.0,92,-99.99,,,-99.99,,2013-10-06 03:22:00,
2013-10-05 23:44:00,68.0,66.0,29.85,West,261,0.0,-999.0,92,-99.99,,,-99.99,,2013-10-06 03:44:00,
2013-10-05 23:54:00,68.0,66.0,29.84,South,169,0.0,-999.0,92,-99.99,,,-99.99,,2013-10-06 03:54:00,